RJOA/HIJ METAR and TAF weather

Enter ICAO airport designator
Station Type Date Time Source
RJOA METAR 2019/07/20 05:00 UTC NOAA

RJOA 200500Z 11009KT 9999 FEW015 SCT050 BKN/// 25/22 Q1012


Station Type Date Time Source
RJOA Decoded METAR 2019/07/20 05:00 UTC NOAA

Hiroshima Airport, Japan (RJOA) 34-26N 132-55E 334M
Jul 20, 2019 - 01:00 AM EDT / 2019.07.20 0500 UTC
Wind: from the ESE (110 degrees) at 10 MPH (9 KT):0
Visibility: greater than 7 mile(s):0
Sky conditions: mostly cloudy
Temperature: 77 F (25 C)
Dew Point: 71 F (22 C)
Relative Humidity: 83%
Pressure (altimeter): 29.88 in. Hg (1012 hPa)
ob: RJOA 200500Z 11009KT 9999 FEW015 SCT050 BKN/// 25/22 Q1012
cycle: 5

Station Type Date Time Source
RJOA TAF 2019/07/20 06:30 UTC NOAA

TAF RJOA 200508Z 2006/2112 10005KT 9999 FEW010 SCT040
BECMG 2018/2021 20005KT 4000 -SHRA BR BCFG FEW000 BKN008 BKN025
TEMPO 2021/2103 1500 +SHRA BR BCFG FEW000 BKN005 BKN010 FEW020CB
TEMPO 2103/2109 3000 -SHRA BR BCFG FEW000 SCT003 BKN005

Example: see airport list